createdAt,value
2023-01-29T00:00:41.822Z,1.55
2023-01-29T00:03:08.372Z,1.20
2023-01-29T00:05:34.999Z,0.95
2023-01-29T00:08:01.912Z,1.00
2023-01-29T00:10:28.482Z,1.30
2023-01-29T00:12:56.324Z,0.98
2023-01-29T00:15:22.894Z,1.23
2023-01-29T00:17:49.446Z,1.10
2023-01-29T00:20:16.611Z,1.30
2023-01-29T00:22:43.318Z,1.23
2023-01-29T00:25:09.865Z,1.13
2023-01-29T00:27:36.531Z,1.00
2023-01-29T00:30:04.911Z,1.00
2023-01-29T00:32:32.399Z,0.95
2023-01-29T00:34:58.895Z,1.17
2023-01-29T00:37:25.474Z,1.30
2023-01-29T00:39:51.995Z,1.10
2023-01-29T00:42:18.488Z,1.45
2023-01-29T00:44:44.971Z,0.95
2023-01-29T00:47:12.805Z,1.23
2023-01-29T00:49:39.322Z,0.90
2023-01-29T00:52:05.809Z,1.00
2023-01-29T00:54:33.281Z,1.13
2023-01-29T00:56:59.876Z,1.08
2023-01-29T00:59:26.496Z,1.08
2023-01-29T01:01:53.209Z,1.00
2023-01-29T01:04:21.031Z,1.10
2023-01-29T01:06:47.535Z,0.95
2023-01-29T01:09:14.117Z,1.00
2023-01-29T01:11:40.690Z,1.10
2023-01-29T01:14:07.299Z,1.10
2023-01-29T01:16:33.870Z,0.93
2023-01-29T01:19:00.563Z,1.00
2023-01-29T01:21:28.441Z,0.90
2023-01-29T01:23:54.985Z,0.88
2023-01-29T01:26:21.634Z,1.10
2023-01-29T01:28:48.106Z,1.10
2023-01-29T01:31:14.890Z,1.10
2023-01-29T01:33:41.861Z,1.00
2023-01-29T01:36:08.498Z,1.15
2023-01-29T01:38:36.567Z,1.15
2023-01-29T01:41:03.168Z,0.82
2023-01-29T01:43:47.414Z,0.90
2023-01-29T01:48:40.891Z,0.90
2023-01-29T01:51:07.591Z,0.80
2023-01-29T01:53:41.114Z,0.85
2023-01-29T01:56:10.258Z,0.80
2023-01-29T01:58:40.704Z,0.93
2023-01-29T02:01:08.763Z,0.93
2023-01-29T02:03:40.971Z,1.10
2023-01-29T02:06:09.020Z,1.15
2023-01-29T02:08:45.304Z,0.82
2023-01-29T02:11:11.970Z,0.85
2023-01-29T02:13:38.504Z,1.02
2023-01-29T02:16:05.436Z,1.05
2023-01-29T02:18:32.027Z,0.90
2023-01-29T02:21:18.047Z,0.75
2023-01-29T02:24:07.758Z,0.80
2023-01-29T02:26:44.909Z,0.77
2023-01-29T02:29:19.877Z,1.38
2023-01-29T02:31:55.478Z,0.93
2023-01-29T02:34:31.139Z,1.08
2023-01-29T02:37:06.409Z,0.88
2023-01-29T02:39:37.718Z,0.85
2023-01-29T02:42:15.431Z,1.02
2023-01-29T02:44:48.304Z,0.80
2023-01-29T02:47:21.793Z,0.88
2023-01-29T02:49:52.668Z,0.80
2023-01-29T02:52:23.283Z,0.85
2023-01-29T02:54:55.513Z,1.20
2023-01-29T02:57:26.584Z,1.00
2023-01-29T02:59:58.713Z,1.05
2023-01-29T03:02:32.257Z,1.10
2023-01-29T03:05:03.025Z,0.98
2023-01-29T03:07:35.359Z,1.00
2023-01-29T03:10:03.283Z,0.90
2023-01-29T03:12:33.557Z,0.90
2023-01-29T03:15:06.859Z,1.08
2023-01-29T03:17:40.060Z,1.20
2023-01-29T03:20:11.914Z,1.10
2023-01-29T03:22:41.024Z,0.80
2023-01-29T03:25:10.087Z,1.17
2023-01-29T03:27:41.457Z,0.90
2023-01-29T03:30:12.597Z,0.98
2023-01-29T03:32:39.253Z,1.10
2023-01-29T03:35:09.769Z,0.77
2023-01-29T03:37:40.518Z,1.10
2023-01-29T03:40:08.776Z,1.00
2023-01-29T03:42:52.473Z,1.02
2023-01-29T03:45:27.769Z,0.90
2023-01-29T03:48:04.383Z,0.98
2023-01-29T03:50:38.327Z,1.02
2023-01-29T03:55:41.462Z,1.20
2023-01-29T03:58:21.283Z,0.90
2023-01-29T04:00:56.001Z,0.90
2023-01-29T04:03:28.873Z,0.90
2023-01-29T04:06:00.116Z,0.90
2023-01-29T04:08:30.434Z,0.70
2023-01-29T04:11:01.236Z,0.93
2023-01-29T04:13:31.547Z,0.80
2023-01-29T04:16:01.385Z,0.90
2023-01-29T04:18:28.056Z,1.00
2023-01-29T04:20:55.182Z,0.75
2023-01-29T04:23:23.559Z,1.00
2023-01-29T04:26:00.261Z,0.85
2023-01-29T04:28:42.889Z,1.05
2023-01-29T04:31:12.296Z,1.00
2023-01-29T04:33:51.272Z,1.08
2023-01-29T04:36:28.533Z,1.00
2023-01-29T04:39:07.284Z,0.80
2023-01-29T04:41:39.303Z,1.10
2023-01-29T04:44:11.232Z,0.95
2023-01-29T04:46:49.442Z,0.70
2023-01-29T04:49:29.761Z,0.98
2023-01-29T04:52:06.984Z,1.20
2023-01-29T04:54:47.852Z,0.90
2023-01-29T04:57:21.374Z,1.02
2023-01-29T04:59:54.752Z,0.88
2023-01-29T05:02:26.583Z,1.10
2023-01-29T05:04:54.500Z,1.13
2023-01-29T05:07:24.329Z,1.00
2023-01-29T05:09:51.449Z,1.10
2023-01-29T05:12:18.299Z,0.98
2023-01-29T05:14:47.239Z,1.00
2023-01-29T05:17:18.393Z,1.00
2023-01-29T05:19:47.419Z,1.10
2023-01-29T05:22:17.570Z,0.93
2023-01-29T05:24:44.310Z,0.82
2023-01-29T05:27:17.033Z,1.13
2023-01-29T05:29:46.075Z,1.08
2023-01-29T05:32:13.331Z,1.08
2023-01-29T05:34:39.831Z,1.40
2023-01-29T05:37:08.965Z,1.08
2023-01-29T05:39:35.654Z,1.17
2023-01-29T05:42:02.477Z,1.02
2023-01-29T05:44:28.980Z,1.00
2023-01-29T05:46:55.537Z,1.10
2023-01-29T05:49:22.137Z,1.27
2023-01-29T05:51:48.639Z,1.10
2023-01-29T05:54:16.546Z,1.10
2023-01-29T05:56:43.255Z,1.10
2023-01-29T05:59:09.823Z,1.25
2023-01-29T06:01:37.252Z,1.10
2023-01-29T06:04:03.881Z,1.30
2023-01-29T06:06:30.427Z,1.17
2023-01-29T06:08:56.929Z,1.40
2023-01-29T06:11:24.978Z,1.20
2023-01-29T06:13:51.456Z,1.27
2023-01-29T06:16:18.085Z,1.33
2023-01-29T06:18:44.637Z,1.20
2023-01-29T06:21:13.423Z,1.50
2023-01-29T06:23:40.084Z,1.20
2023-01-29T06:26:10.347Z,1.33
2023-01-29T06:28:38.593Z,1.20
2023-01-29T06:31:37.390Z,1.33
2023-01-29T06:33:53.324Z,1.20
2023-01-29T06:36:19.857Z,1.20
2023-01-29T06:38:46.388Z,1.10
2023-01-29T06:41:16.496Z,1.40
2023-01-29T06:43:45.703Z,1.35
2023-01-29T06:46:12.251Z,1.10
2023-01-29T06:48:38.793Z,1.10
2023-01-29T06:51:07.009Z,1.20
2023-01-29T06:53:34.769Z,1.30
2023-01-29T06:56:01.307Z,1.40
2023-01-29T06:58:27.843Z,1.20
2023-01-29T07:01:03.360Z,1.30
2023-01-29T07:03:29.892Z,1.13
2023-01-29T07:05:56.399Z,1.17
2023-01-29T07:08:22.901Z,1.30
2023-01-29T07:10:50.159Z,1.10
2023-01-29T07:13:16.888Z,1.48
2023-01-29T07:15:43.537Z,1.20
2023-01-29T07:18:11.395Z,1.50
2023-01-29T07:20:38.947Z,1.25
2023-01-29T07:23:05.750Z,1.20
2023-01-29T07:25:33.662Z,1.33
2023-01-29T07:28:01.082Z,1.30
2023-01-29T07:30:28.085Z,1.35
2023-01-29T07:32:54.814Z,1.52
2023-01-29T07:35:22.600Z,1.20
2023-01-29T07:37:49.825Z,1.50
2023-01-29T07:40:16.683Z,1.40
2023-01-29T07:42:43.392Z,1.30
2023-01-29T07:45:11.507Z,1.10
2023-01-29T07:47:38.169Z,1.50
2023-01-29T07:50:05.798Z,1.40
2023-01-29T07:52:34.044Z,1.27
2023-01-29T07:55:00.583Z,1.30
2023-01-29T07:57:27.078Z,1.20
2023-01-29T07:59:53.592Z,1.30
2023-01-29T08:02:20.148Z,1.33
2023-01-29T08:04:46.702Z,1.20
2023-01-29T08:07:13.194Z,1.48
2023-01-29T08:09:41.014Z,1.33
2023-01-29T08:12:07.575Z,1.20
2023-01-29T08:14:34.104Z,1.48
2023-01-29T08:17:00.633Z,1.30
2023-01-29T08:19:27.266Z,2.28
2023-01-29T08:21:53.791Z,1.27
2023-01-29T08:24:21.051Z,1.30
2023-01-29T08:26:48.905Z,1.40
2023-01-29T08:29:15.429Z,1.50
2023-01-29T08:31:42.122Z,1.23
2023-01-29T08:34:08.619Z,1.40
2023-01-29T08:36:35.664Z,1.50
2023-01-29T08:39:02.354Z,1.38
2023-01-29T08:41:28.908Z,1.40
2023-01-29T08:43:56.728Z,1.73
2023-01-29T08:46:23.311Z,1.45
2023-01-29T08:48:49.907Z,1.75
2023-01-29T08:51:16.529Z,1.73
2023-01-29T08:53:43.080Z,1.50
2023-01-29T08:56:09.659Z,1.30
2023-01-29T08:58:36.208Z,2.08
2023-01-29T09:01:08.222Z,1.60
2023-01-29T09:03:35.479Z,1.55
2023-01-29T09:06:02.249Z,2.00
2023-01-29T09:08:28.867Z,1.75
2023-01-29T09:10:58.202Z,1.63
2023-01-29T09:13:24.707Z,1.73
2023-01-29T09:15:51.240Z,1.67
2023-01-29T09:18:19.144Z,1.50
2023-01-29T09:20:45.646Z,1.80
2023-01-29T09:23:12.304Z,1.63
2023-01-29T09:25:38.890Z,1.77
2023-01-29T09:28:05.724Z,1.90
2023-01-29T09:30:32.364Z,1.63
2023-01-29T09:33:00.334Z,1.60
2023-01-29T09:35:28.134Z,1.85
2023-01-29T09:37:54.655Z,1.67
2023-01-29T09:40:25.938Z,1.90
2023-01-29T09:42:56.565Z,1.90
2023-01-29T09:45:26.474Z,1.65
2023-01-29T09:47:55.912Z,1.80
2023-01-29T09:50:29.891Z,1.77
2023-01-29T09:55:28.616Z,1.70
2023-01-29T09:57:59.094Z,1.63
2023-01-29T10:00:32.857Z,1.85
2023-01-29T10:03:16.225Z,1.75
2023-01-29T10:05:58.015Z,1.87
2023-01-29T10:08:42.397Z,1.80
2023-01-29T10:11:23.364Z,1.88
2023-01-29T10:14:01.378Z,1.88
2023-01-29T10:16:38.203Z,1.88
2023-01-29T10:19:18.256Z,1.80
2023-01-29T10:21:59.100Z,1.85
2023-01-29T10:24:36.552Z,1.90
2023-01-29T10:27:05.860Z,1.90
2023-01-29T10:29:34.062Z,1.70
2023-01-29T10:32:02.643Z,1.95
2023-01-29T10:34:35.110Z,1.90
2023-01-29T10:37:13.196Z,1.90
2023-01-29T10:39:39.750Z,1.83
2023-01-29T10:42:19.533Z,1.98
2023-01-29T10:44:59.578Z,1.90
2023-01-29T10:47:46.962Z,2.00
2023-01-29T10:50:22.618Z,1.77
2023-01-29T10:53:09.804Z,1.80
2023-01-29T10:55:46.652Z,1.63
2023-01-29T10:58:22.025Z,1.90
2023-01-29T11:00:49.227Z,2.00
2023-01-29T11:03:27.461Z,1.95
2023-01-29T11:06:02.686Z,1.80
2023-01-29T11:08:37.245Z,1.83
2023-01-29T11:11:07.768Z,1.90
2023-01-29T11:13:40.283Z,1.95
2023-01-29T11:16:09.037Z,1.90
2023-01-29T11:18:51.089Z,1.98
2023-01-29T11:21:17.647Z,2.00
2023-01-29T11:23:45.624Z,1.70
2023-01-29T11:26:16.764Z,1.83
2023-01-29T11:28:45.173Z,2.00
2023-01-29T11:31:19.128Z,1.90
2023-01-29T11:36:29.366Z,1.80
2023-01-29T11:39:14.915Z,1.80
2023-01-29T11:41:43.772Z,1.90
2023-01-29T11:44:20.079Z,1.80
2023-01-29T11:46:47.494Z,2.00
2023-01-29T11:49:27.421Z,1.77
2023-01-29T11:51:56.011Z,2.17
2023-01-29T11:54:27.960Z,1.83
2023-01-29T11:56:55.685Z,1.90
2023-01-29T11:59:39.469Z,1.85
2023-01-29T12:02:18.806Z,2.05
2023-01-29T12:04:46.461Z,1.80
2023-01-29T12:07:15.887Z,1.58
2023-01-29T12:09:49.483Z,1.50
2023-01-29T12:12:26.336Z,1.95
2023-01-29T12:15:04.953Z,1.80
2023-01-29T12:17:36.275Z,1.65
2023-01-29T12:20:11.993Z,1.85
2023-01-29T12:22:46.736Z,1.63
2023-01-29T12:25:23.136Z,2.05
2023-01-29T12:27:59.317Z,1.63
2023-01-29T12:30:31.451Z,1.85
2023-01-29T12:33:04.829Z,1.70
2023-01-29T12:35:35.122Z,1.63
2023-01-29T12:38:04.340Z,1.80
2023-01-29T12:40:40.178Z,1.80
2023-01-29T12:43:15.232Z,1.70
2023-01-29T12:45:43.614Z,1.80
2023-01-29T12:48:14.243Z,1.77
2023-01-29T12:50:41.083Z,1.60
2023-01-29T12:53:19.856Z,1.92
2023-01-29T12:55:51.174Z,1.70
2023-01-29T12:58:23.933Z,1.95
2023-01-29T13:00:54.576Z,1.75
2023-01-29T13:03:25.440Z,1.92
2023-01-29T13:05:55.200Z,1.92
2023-01-29T13:08:29.056Z,1.55
2023-01-29T13:11:00.384Z,2.00
2023-01-29T13:13:31.526Z,1.65
2023-01-29T13:15:59.430Z,1.63
2023-01-29T13:18:39.907Z,1.30
2023-01-29T13:21:11.947Z,1.70
2023-01-29T13:23:44.008Z,1.50
2023-01-29T13:26:14.011Z,2.00
2023-01-29T13:28:44.827Z,1.42
2023-01-29T13:31:14.842Z,1.60
2023-01-29T13:33:42.913Z,1.65
2023-01-29T13:36:19.955Z,1.80
2023-01-29T13:38:54.160Z,1.65
2023-01-29T13:41:32.588Z,1.70
2023-01-29T13:43:59.366Z,1.50
2023-01-29T13:46:26.093Z,1.50
2023-01-29T13:48:53.073Z,1.90
2023-01-29T13:51:22.666Z,1.50
2023-01-29T13:53:56.678Z,1.80
2023-01-29T13:59:22.765Z,1.60
2023-01-29T14:02:00.920Z,1.70
2023-01-29T14:04:29.846Z,1.58
2023-01-29T14:06:57.794Z,1.75
2023-01-29T14:09:47.267Z,1.55
2023-01-29T14:12:36.286Z,1.38
2023-01-29T14:15:15.265Z,1.63
2023-01-29T14:17:59.406Z,1.60
2023-01-29T14:20:43.159Z,1.83
2023-01-29T14:23:23.645Z,1.70
2023-01-29T14:25:50.523Z,1.60
2023-01-29T14:28:23.351Z,1.65
2023-01-29T14:30:51.129Z,1.70
2023-01-29T14:33:26.703Z,1.77
2023-01-29T14:35:55.799Z,1.70
2023-01-29T14:38:26.161Z,1.40
2023-01-29T14:41:04.361Z,1.60
2023-01-29T14:43:32.298Z,1.60
2023-01-29T14:46:40.052Z,1.80
2023-01-29T14:49:08.261Z,1.65
2023-01-29T14:51:38.271Z,1.30
2023-01-29T14:54:14.866Z,1.50
2023-01-29T14:56:49.831Z,1.48
2023-01-29T14:59:21.846Z,1.63
2023-01-29T15:01:52.944Z,1.80
2023-01-29T15:04:25.626Z,1.95
2023-01-29T15:06:59.311Z,1.50
2023-01-29T15:09:36.819Z,1.60
2023-01-29T15:12:13.509Z,1.45
2023-01-29T15:14:47.602Z,1.52
2023-01-29T15:17:22.913Z,1.63
2023-01-29T15:19:49.588Z,1.42
2023-01-29T15:22:17.741Z,1.60
2023-01-29T15:24:46.157Z,1.40
2023-01-29T15:27:16.609Z,1.65
2023-01-29T15:29:48.530Z,1.52
2023-01-29T15:32:22.032Z,1.88
2023-01-29T15:34:49.420Z,1.85
2023-01-29T15:37:25.797Z,1.75
2023-01-29T15:39:53.214Z,1.77
2023-01-29T15:42:19.786Z,1.50
2023-01-29T15:44:47.665Z,1.70
2023-01-29T15:47:15.390Z,1.50
2023-01-29T15:49:42.335Z,1.42
2023-01-29T15:52:20.358Z,1.52
2023-01-29T15:54:47.396Z,1.50
2023-01-29T15:57:22.493Z,1.63
2023-01-29T15:59:52.207Z,1.70
2023-01-29T16:02:25.680Z,1.50
2023-01-29T16:04:53.064Z,1.40
2023-01-29T16:07:19.667Z,1.60
2023-01-29T16:09:46.525Z,1.52
2023-01-29T16:12:14.382Z,1.67
2023-01-29T16:14:41.675Z,1.45
2023-01-29T16:17:24.067Z,1.67
2023-01-29T16:19:58.617Z,1.88
2023-01-29T16:22:28.933Z,1.65
2023-01-29T16:24:55.598Z,1.58
2023-01-29T16:27:24.986Z,1.63
2023-01-29T16:29:51.873Z,1.70
2023-01-29T16:32:21.441Z,1.50
2023-01-29T16:34:49.205Z,1.60
2023-01-29T16:37:21.828Z,1.40
2023-01-29T16:39:49.840Z,1.50
2023-01-29T16:42:23.062Z,1.67
2023-01-29T16:44:52.320Z,1.45
2023-01-29T16:47:26.702Z,1.50
2023-01-29T16:49:55.189Z,1.55
2023-01-29T16:52:24.866Z,1.80
2023-01-29T16:54:58.352Z,1.50
2023-01-29T16:57:27.325Z,1.52
2023-01-29T16:59:56.872Z,1.70
2023-01-29T17:02:27.459Z,1.88
2023-01-29T17:04:58.515Z,1.60
2023-01-29T17:07:25.714Z,1.63
2023-01-29T17:09:56.217Z,1.50
2023-01-29T17:12:26.140Z,1.75
2023-01-29T17:14:54.252Z,1.63
2023-01-29T17:17:20.760Z,1.60
2023-01-29T17:19:48.633Z,1.80
2023-01-29T17:22:15.169Z,1.80
2023-01-29T17:24:41.912Z,1.90
2023-01-29T17:27:16.903Z,1.63
2023-01-29T17:29:43.483Z,1.75
2023-01-29T17:32:10.075Z,1.70
2023-01-29T17:34:36.789Z,1.70
2023-01-29T17:37:04.688Z,1.83
2023-01-29T17:39:31.770Z,1.80
2023-01-29T17:41:58.781Z,1.63
2023-01-29T17:44:25.438Z,2.13
2023-01-29T17:46:52.073Z,1.90
2023-01-29T17:49:22.973Z,1.77
2023-01-29T17:51:50.141Z,1.63
2023-01-29T17:54:19.203Z,1.67
2023-01-29T17:56:45.925Z,1.73
2023-01-29T17:59:14.492Z,1.65
2023-01-29T18:01:41.271Z,1.83
2023-01-29T18:04:08.206Z,1.88
2023-01-29T18:06:34.970Z,1.58
2023-01-29T18:09:01.906Z,2.05
2023-01-29T18:11:30.259Z,1.92
2023-01-29T18:13:57.552Z,2.10
2023-01-29T18:16:24.859Z,2.03
2023-01-29T18:18:52.268Z,2.17
2023-01-29T18:21:18.877Z,1.98
2023-01-29T18:23:45.390Z,2.05
2023-01-29T18:26:16.609Z,2.05
2023-01-29T18:28:44.447Z,2.10
2023-01-29T18:31:13.165Z,1.70
2023-01-29T18:33:40.518Z,1.90
2023-01-29T18:36:08.059Z,2.08
2023-01-29T18:38:34.634Z,2.10
2023-01-29T18:41:05.089Z,2.03
2023-01-29T18:43:31.815Z,2.03
2023-01-29T18:45:59.779Z,2.10
2023-01-29T18:48:26.394Z,1.92
2023-01-29T18:50:52.925Z,1.90
2023-01-29T18:53:19.414Z,1.90
2023-01-29T18:55:54.369Z,2.05
2023-01-29T18:58:26.804Z,1.83
2023-01-29T19:01:03.090Z,1.90
2023-01-29T19:03:29.659Z,1.95
2023-01-29T19:06:00.557Z,2.10
2023-01-29T19:08:27.070Z,1.98
2023-01-29T19:10:53.548Z,1.95
2023-01-29T19:13:20.083Z,1.90
2023-01-29T19:15:46.752Z,1.95
2023-01-29T19:18:15.162Z,2.10
2023-01-29T19:20:41.697Z,2.05
2023-01-29T19:23:08.526Z,2.10
2023-01-29T19:25:37.152Z,2.00
2023-01-29T19:28:03.698Z,2.00
2023-01-29T19:30:30.296Z,1.95
2023-01-29T19:32:56.804Z,2.00
2023-01-29T19:35:24.747Z,2.03
2023-01-29T19:37:51.294Z,2.20
2023-01-29T19:40:18.277Z,2.22
2023-01-29T19:42:44.802Z,1.98
2023-01-29T19:45:11.459Z,2.20
2023-01-29T19:47:38.877Z,2.03
2023-01-29T19:50:06.587Z,2.40
2023-01-29T19:52:51.060Z,2.00
2023-01-29T19:55:19.671Z,2.30
2023-01-29T19:57:46.347Z,2.10
2023-01-29T20:00:14.065Z,2.08
2023-01-29T20:02:40.598Z,1.95
2023-01-29T20:05:07.965Z,2.25
2023-01-29T20:07:35.808Z,2.13
2023-01-29T20:10:02.352Z,2.13
2023-01-29T20:12:28.860Z,1.80
2023-01-29T20:14:55.418Z,2.10
2023-01-29T20:17:21.943Z,2.03
2023-01-29T20:19:48.547Z,2.05
2023-01-29T20:22:15.112Z,2.00
2023-01-29T20:24:42.902Z,1.90
2023-01-29T20:27:09.932Z,2.50
2023-01-29T20:29:36.999Z,2.28
2023-01-29T20:32:03.923Z,2.28
2023-01-29T20:34:30.897Z,2.05
2023-01-29T20:36:57.496Z,2.33
2023-01-29T20:39:24.028Z,1.90
2023-01-29T20:41:51.964Z,2.00
2023-01-29T20:44:18.520Z,2.20
2023-01-29T20:46:45.507Z,1.95
2023-01-29T20:49:12.026Z,1.90
2023-01-29T20:51:38.714Z,2.38
2023-01-29T20:54:05.436Z,2.47
2023-01-29T20:56:38.162Z,1.98
2023-01-29T20:59:11.231Z,2.03
2023-01-29T21:01:37.755Z,2.10
2023-01-29T21:04:04.260Z,2.03
2023-01-29T21:06:31.177Z,2.13
2023-01-29T21:08:57.680Z,2.13
2023-01-29T21:11:24.546Z,2.15
2023-01-29T21:13:51.085Z,2.38
2023-01-29T21:16:18.933Z,2.20
2023-01-29T21:18:45.449Z,2.30
2023-01-29T21:21:11.918Z,1.90
2023-01-29T21:23:38.518Z,2.13
2023-01-29T21:26:06.521Z,2.20
2023-01-29T21:28:33.580Z,2.15
2023-01-29T21:31:05.283Z,2.05
2023-01-29T21:33:33.405Z,2.08
2023-01-29T21:36:00.360Z,1.98
2023-01-29T21:38:27.211Z,2.13
2023-01-29T21:40:59.240Z,2.08
2023-01-29T21:43:25.720Z,2.20
2023-01-29T21:45:55.417Z,2.10
2023-01-29T21:48:22.000Z,2.10
2023-01-29T21:50:49.979Z,2.08
2023-01-29T21:53:16.658Z,2.00
2023-01-29T21:55:43.293Z,2.05
2023-01-29T21:58:10.377Z,2.10
2023-01-29T22:00:37.186Z,2.00
2023-01-29T22:03:04.254Z,2.50
2023-01-29T22:05:30.873Z,2.05
2023-01-29T22:07:58.732Z,2.20
2023-01-29T22:10:25.629Z,1.95
2023-01-29T22:12:52.277Z,1.95
2023-01-29T22:15:18.757Z,2.17
2023-01-29T22:17:45.266Z,2.15
2023-01-29T22:20:13.409Z,1.92
2023-01-29T22:22:39.936Z,2.08
2023-01-29T22:25:08.528Z,1.98
2023-01-29T22:27:35.261Z,2.08
2023-01-29T22:30:02.168Z,2.20
2023-01-29T22:32:28.790Z,1.98
2023-01-29T22:34:55.408Z,1.75
2023-01-29T22:37:22.120Z,2.00
2023-01-29T22:39:48.617Z,1.67
2023-01-29T22:42:18.732Z,2.10
2023-01-29T22:44:45.231Z,1.80
2023-01-29T22:47:11.716Z,2.20
2023-01-29T22:49:38.225Z,2.25
2023-01-29T22:52:05.065Z,1.85
2023-01-29T22:54:31.592Z,2.10
2023-01-29T22:56:58.089Z,2.13
2023-01-29T22:59:26.080Z,2.10
2023-01-29T23:01:52.741Z,2.00
2023-01-29T23:04:19.324Z,1.50
2023-01-29T23:06:45.816Z,2.00
2023-01-29T23:09:12.411Z,2.08
2023-01-29T23:11:38.907Z,2.22
2023-01-29T23:14:05.445Z,2.22
2023-01-29T23:16:33.278Z,1.90
2023-01-29T23:18:59.791Z,2.08
2023-01-29T23:21:26.581Z,2.00
2023-01-29T23:23:53.101Z,1.98
2023-01-29T23:26:19.732Z,1.90
2023-01-29T23:28:46.605Z,2.05
2023-01-29T23:31:13.714Z,1.98
2023-01-29T23:33:42.054Z,1.98
2023-01-29T23:36:08.939Z,2.00
2023-01-29T23:38:35.539Z,2.10
2023-01-29T23:41:02.049Z,1.90
2023-01-29T23:43:29.863Z,2.20
2023-01-29T23:45:56.927Z,1.92
2023-01-29T23:48:23.838Z,1.83
2023-01-29T23:50:51.661Z,1.90
2023-01-29T23:53:18.399Z,1.85
2023-01-29T23:55:55.803Z,1.92
2023-01-29T23:58:22.322Z,1.92
